sensor_id;sensor_type;location;lat;lon;timestamp;temperature;humidity
21590;DHT22;10957;50.968;6.828;2022-09-16T00:03:15;12.80;99.90
21590;DHT22;10957;50.968;6.828;2022-09-16T00:08:17;12.50;99.90
21590;DHT22;10957;50.968;6.828;2022-09-16T00:13:18;12.70;99.90
21590;DHT22;10957;50.968;6.828;2022-09-16T00:18:19;12.30;99.90
21590;DHT22;10957;50.968;6.828;2022-09-16T00:23:20;12.30;99.90
21590;DHT22;10957;50.968;6.828;2022-09-16T00:28:21;12.00;99.90
21590;DHT22;10957;50.968;6.828;2022-09-16T00:33:23;11.90;99.90
21590;DHT22;10957;50.968;6.828;2022-09-16T00:38:23;12.40;99.90
21590;DHT22;10957;50.968;6.828;2022-09-16T00:43:24;12.40;99.90
21590;DHT22;10957;50.968;6.828;2022-09-16T00:48:27;12.30;99.90
21590;DHT22;10957;50.968;6.828;2022-09-16T00:53:32;12.20;99.90
21590;DHT22;10957;50.968;6.828;2022-09-16T00:58:43;12.10;99.90
21590;DHT22;10957;50.968;6.828;2022-09-16T01:03:51;12.10;99.90
21590;DHT22;10957;50.968;6.828;2022-09-16T01:08:54;12.40;99.90
21590;DHT22;10957;50.968;6.828;2022-09-16T01:13:56;12.20;99.90
21590;DHT22;10957;50.968;6.828;2022-09-16T01:30:41;12.20;99.90
21590;DHT22;10957;50.968;6.828;2022-09-16T01:41:17;12.40;99.90
21590;DHT22;10957;50.968;6.828;2022-09-16T01:46:30;12.50;99.90
21590;DHT22;10957;50.968;6.828;2022-09-16T01:57:18;12.70;99.90
21590;DHT22;10957;50.968;6.828;2022-09-16T02:02:35;12.80;99.90
21590;DHT22;10957;50.968;6.828;2022-09-16T02:07:42;12.80;99.90
21590;DHT22;10957;50.968;6.828;2022-09-16T02:12:46;12.70;99.90
21590;DHT22;10957;50.968;6.828;2022-09-16T02:18:07;12.90;99.90
21590;DHT22;10957;50.968;6.828;2022-09-16T02:23:17;12.40;99.90
21590;DHT22;10957;50.968;6.828;2022-09-16T02:28:23;12.70;99.90
21590;DHT22;10957;50.968;6.828;2022-09-16T02:33:31;12.40;99.90
21590;DHT22;10957;50.968;6.828;2022-09-16T02:38:41;12.90;99.90
21590;DHT22;10957;50.968;6.828;2022-09-16T02:43:44;12.80;99.90
21590;DHT22;10957;50.968;6.828;2022-09-16T02:49:08;12.30;99.90
21590;DHT22;10957;50.968;6.828;2022-09-16T02:54:49;12.70;99.90
21590;DHT22;10957;50.968;6.828;2022-09-16T02:59:51;12.70;99.90
21590;DHT22;10957;50.968;6.828;2022-09-16T03:04:52;12.80;99.90
21590;DHT22;10957;50.968;6.828;2022-09-16T03:09:53;12.80;99.90
21590;DHT22;10957;50.968;6.828;2022-09-16T18:31:07;11.30;99.90
21590;DHT22;10957;50.968;6.828;2022-09-16T18:36:10;11.20;99.90
21590;DHT22;10957;50.968;6.828;2022-09-16T18:41:17;11.30;99.90
21590;DHT22;10957;50.968;6.828;2022-09-16T18:46:20;11.50;99.90
21590;DHT22;10957;50.968;6.828;2022-09-16T18:51:34;11.50;99.90
21590;DHT22;10957;50.968;6.828;2022-09-16T18:56:36;10.80;99.90
21590;DHT22;10957;50.968;6.828;2022-09-16T19:01:39;11.00;99.90
21590;DHT22;10957;50.968;6.828;2022-09-16T19:06:44;11.40;99.90
21590;DHT22;10957;50.968;6.828;2022-09-16T19:11:46;11.20;99.90
21590;DHT22;10957;50.968;6.828;2022-09-16T19:16:48;11.30;99.90
21590;DHT22;10957;50.968;6.828;2022-09-16T19:21:49;11.40;99.90
21590;DHT22;10957;50.968;6.828;2022-09-16T19:26:52;10.70;99.90
21590;DHT22;10957;50.968;6.828;2022-09-16T19:31:53;10.80;99.90
21590;DHT22;10957;50.968;6.828;2022-09-16T19:36:55;11.50;99.90
21590;DHT22;10957;50.968;6.828;2022-09-16T19:41:56;11.40;99.90
21590;DHT22;10957;50.968;6.828;2022-09-16T19:47:02;11.10;99.90
21590;DHT22;10957;50.968;6.828;2022-09-16T19:52:03;11.20;99.90
21590;DHT22;10957;50.968;6.828;2022-09-16T19:57:05;11.10;99.90
21590;DHT22;10957;50.968;6.828;2022-09-16T20:02:08;10.80;99.90
21590;DHT22;10957;50.968;6.828;2022-09-16T20:07:09;10.90;99.90
21590;DHT22;10957;50.968;6.828;2022-09-16T20:12:16;11.10;99.90
21590;DHT22;10957;50.968;6.828;2022-09-16T20:17:16;10.70;99.90
21590;DHT22;10957;50.968;6.828;2022-09-16T20:22:17;10.70;99.90
21590;DHT22;10957;50.968;6.828;2022-09-16T20:27:18;10.60;99.90
21590;DHT22;10957;50.968;6.828;2022-09-16T20:32:19;10.70;99.90
21590;DHT22;10957;50.968;6.828;2022-09-16T20:37:20;10.60;99.90
21590;DHT22;10957;50.968;6.828;2022-09-16T20:42:21;10.20;99.90
21590;DHT22;10957;50.968;6.828;2022-09-16T20:47:22;10.70;99.90
21590;DHT22;10957;50.968;6.828;2022-09-16T20:52:26;10.70;99.90
21590;DHT22;10957;50.968;6.828;2022-09-16T20:57:27;10.70;99.90
21590;DHT22;10957;50.968;6.828;2022-09-16T21:02:28;10.40;99.90
21590;DHT22;10957;50.968;6.828;2022-09-16T21:07:29;10.40;99.90
21590;DHT22;10957;50.968;6.828;2022-09-16T21:12:30;10.40;99.90
21590;DHT22;10957;50.968;6.828;2022-09-16T21:17:31;10.40;99.90
21590;DHT22;10957;50.968;6.828;2022-09-16T21:22:34;10.50;99.90
21590;DHT22;10957;50.968;6.828;2022-09-16T21:27:35;10.50;99.90
21590;DHT22;10957;50.968;6.828;2022-09-16T21:32:36;10.50;99.90
21590;DHT22;10957;50.968;6.828;2022-09-16T21:37:37;10.50;99.90
21590;DHT22;10957;50.968;6.828;2022-09-16T21:42:37;10.40;99.90
21590;DHT22;10957;50.968;6.828;2022-09-16T21:47:38;10.10;99.90
21590;DHT22;10957;50.968;6.828;2022-09-16T21:52:39;10.20;99.90
21590;DHT22;10957;50.968;6.828;2022-09-16T21:57:39;10.30;99.90
21590;DHT22;10957;50.968;6.828;2022-09-16T22:02:40;10.30;99.90
21590;DHT22;10957;50.968;6.828;2022-09-16T22:07:41;10.40;99.90
21590;DHT22;10957;50.968;6.828;2022-09-16T22:12:42;10.40;99.90
21590;DHT22;10957;50.968;6.828;2022-09-16T22:17:43;10.00;99.90
21590;DHT22;10957;50.968;6.828;2022-09-16T22:22:44;10.30;99.90
21590;DHT22;10957;50.968;6.828;2022-09-16T22:27:45;10.40;99.90
21590;DHT22;10957;50.968;6.828;2022-09-16T22:32:45;10.00;99.90
21590;DHT22;10957;50.968;6.828;2022-09-16T22:37:49;10.30;99.90
21590;DHT22;10957;50.968;6.828;2022-09-16T22:42:50;10.50;99.90
21590;DHT22;10957;50.968;6.828;2022-09-16T22:47:51;10.20;99.90
21590;DHT22;10957;50.968;6.828;2022-09-16T22:52:51;10.30;99.90
21590;DHT22;10957;50.968;6.828;2022-09-16T22:57:52;10.30;99.90
21590;DHT22;10957;50.968;6.828;2022-09-16T23:02:53;10.20;99.90
21590;DHT22;10957;50.968;6.828;2022-09-16T23:07:53;10.10;99.90
21590;DHT22;10957;50.968;6.828;2022-09-16T23:12:54;9.90;99.90
21590;DHT22;10957;50.968;6.828;2022-09-16T23:17:55;10.30;99.90
21590;DHT22;10957;50.968;6.828;2022-09-16T23:22:56;10.50;99.90
21590;DHT22;10957;50.968;6.828;2022-09-16T23:27:56;10.20;99.90
21590;DHT22;10957;50.968;6.828;2022-09-16T23:32:57;10.20;99.90
21590;DHT22;10957;50.968;6.828;2022-09-16T23:37:58;9.90;99.90
21590;DHT22;10957;50.968;6.828;2022-09-16T23:42:59;10.40;99.90
21590;DHT22;10957;50.968;6.828;2022-09-16T23:48:01;9.80;99.90
21590;DHT22;10957;50.968;6.828;2022-09-16T23:53:02;10.50;99.90
21590;DHT22;10957;50.968;6.828;2022-09-16T23:58:02;10.20;99.90
